sensor_id;sensor_type;location;lat;lon;timestamp;P1;durP1;ratioP1;P2;durP2;ratioP2
69789;SDS011;57064;52.046;4.800;2023-11-21T00:00:31;25.40;;;11.40;;
69789;SDS011;57064;52.046;4.800;2023-11-21T00:02:57;26.60;;;10.93;;
69789;SDS011;57064;52.046;4.800;2023-11-21T00:05:23;24.80;;;11.55;;
69789;SDS011;57064;52.046;4.800;2023-11-21T00:07:49;22.05;;;10.90;;
69789;SDS011;57064;52.046;4.800;2023-11-21T00:10:16;29.63;;;11.50;;
69789;SDS011;57064;52.046;4.800;2023-11-21T00:12:42;26.90;;;10.38;;
69789;SDS011;57064;52.046;4.800;2023-11-21T00:15:09;25.13;;;10.52;;
69789;SDS011;57064;52.046;4.800;2023-11-21T00:17:38;24.65;;;11.52;;
69789;SDS011;57064;52.046;4.800;2023-11-21T00:20:05;26.65;;;10.90;;
69789;SDS011;57064;52.046;4.800;2023-11-21T00:22:33;26.85;;;10.13;;
69789;SDS011;57064;52.046;4.800;2023-11-21T00:24:59;25.80;;;11.15;;
69789;SDS011;57064;52.046;4.800;2023-11-21T00:27:26;25.75;;;11.07;;
69789;SDS011;57064;52.046;4.800;2023-11-21T00:29:52;26.67;;;10.88;;
69789;SDS011;57064;52.046;4.800;2023-11-21T00:32:18;28.33;;;10.57;;
69789;SDS011;57064;52.046;4.800;2023-11-21T00:34:44;27.13;;;10.65;;
69789;SDS011;57064;52.046;4.800;2023-11-21T00:37:10;24.98;;;11.00;;
69789;SDS011;57064;52.046;4.800;2023-11-21T00:39:36;27.67;;;11.60;;
69789;SDS011;57064;52.046;4.800;2023-11-21T00:42:02;23.73;;;11.57;;
69789;SDS011;57064;52.046;4.800;2023-11-21T00:44:29;27.35;;;10.73;;
69789;SDS011;57064;52.046;4.800;2023-11-21T00:46:56;30.00;;;10.93;;
69789;SDS011;57064;52.046;4.800;2023-11-21T00:49:22;25.85;;;9.65;;
69789;SDS011;57064;52.046;4.800;2023-11-21T00:51:48;21.02;;;9.68;;
69789;SDS011;57064;52.046;4.800;2023-11-21T00:54:14;23.90;;;10.15;;
69789;SDS011;57064;52.046;4.800;2023-11-21T00:56:42;26.08;;;10.20;;
69789;SDS011;57064;52.046;4.800;2023-11-21T00:59:08;30.23;;;10.43;;
69789;SDS011;57064;52.046;4.800;2023-11-21T01:01:35;24.55;;;11.07;;
69789;SDS011;57064;52.046;4.800;2023-11-21T01:04:02;25.15;;;10.88;;
69789;SDS011;57064;52.046;4.800;2023-11-21T01:06:29;22.55;;;9.82;;
69789;SDS011;57064;52.046;4.800;2023-11-21T01:08:55;21.05;;;10.07;;
69789;SDS011;57064;52.046;4.800;2023-11-21T01:11:21;25.05;;;10.30;;
69789;SDS011;57064;52.046;4.800;2023-11-21T01:13:47;31.40;;;11.38;;
69789;SDS011;57064;52.046;4.800;2023-11-21T01:16:13;32.97;;;11.98;;
69789;SDS011;57064;52.046;4.800;2023-11-21T01:18:39;28.10;;;10.93;;
69789;SDS011;57064;52.046;4.800;2023-11-21T01:21:05;22.45;;;10.30;;
69789;SDS011;57064;52.046;4.800;2023-11-21T01:23:32;25.13;;;11.55;;
69789;SDS011;57064;52.046;4.800;2023-11-21T01:25:58;24.23;;;10.57;;
69789;SDS011;57064;52.046;4.800;2023-11-21T01:28:24;28.27;;;10.50;;
69789;SDS011;57064;52.046;4.800;2023-11-21T01:30:51;28.60;;;11.77;;
69789;SDS011;57064;52.046;4.800;2023-11-21T01:33:21;28.67;;;11.65;;
69789;SDS011;57064;52.046;4.800;2023-11-21T01:35:49;35.10;;;12.35;;
69789;SDS011;57064;52.046;4.800;2023-11-21T01:38:18;29.98;;;11.00;;
69789;SDS011;57064;52.046;4.800;2023-11-21T01:40:44;36.75;;;11.82;;
69789;SDS011;57064;52.046;4.800;2023-11-21T01:43:10;29.27;;;10.93;;
69789;SDS011;57064;52.046;4.800;2023-11-21T01:45:36;32.50;;;12.32;;
69789;SDS011;57064;52.046;4.800;2023-11-21T01:48:04;26.52;;;10.77;;
69789;SDS011;57064;52.046;4.800;2023-11-21T01:50:32;32.47;;;10.73;;
69789;SDS011;57064;52.046;4.800;2023-11-21T01:52:58;27.48;;;11.38;;
69789;SDS011;57064;52.046;4.800;2023-11-21T01:55:26;29.60;;;11.68;;
69789;SDS011;57064;52.046;4.800;2023-11-21T01:57:53;29.10;;;11.77;;
69789;SDS011;57064;52.046;4.800;2023-11-21T02:00:21;30.67;;;10.77;;
69789;SDS011;57064;52.046;4.800;2023-11-21T02:02:48;36.50;;;13.60;;
69789;SDS011;57064;52.046;4.800;2023-11-21T02:05:15;33.50;;;10.55;;
69789;SDS011;57064;52.046;4.800;2023-11-21T02:07:46;31.30;;;12.88;;
69789;SDS011;57064;52.046;4.800;2023-11-21T02:10:17;36.50;;;11.32;;
69789;SDS011;57064;52.046;4.800;2023-11-21T02:12:48;27.02;;;11.70;;
69789;SDS011;57064;52.046;4.800;2023-11-21T02:15:17;35.15;;;11.55;;
69789;SDS011;57064;52.046;4.800;2023-11-21T02:17:48;29.83;;;11.52;;
69789;SDS011;57064;52.046;4.800;2023-11-21T02:20:19;34.03;;;12.93;;
69789;SDS011;57064;52.046;4.800;2023-11-21T02:22:53;29.52;;;12.23;;
69789;SDS011;57064;52.046;4.800;2023-11-21T02:25:29;33.83;;;12.77;;
69789;SDS011;57064;52.046;4.800;2023-11-21T02:27:57;30.07;;;11.47;;
69789;SDS011;57064;52.046;4.800;2023-11-21T02:30:27;32.42;;;12.82;;
69789;SDS011;57064;52.046;4.800;2023-11-21T02:32:55;33.13;;;12.57;;
69789;SDS011;57064;52.046;4.800;2023-11-21T02:35:22;34.88;;;11.13;;
69789;SDS011;57064;52.046;4.800;2023-11-21T02:37:48;29.50;;;10.73;;
69789;SDS011;57064;52.046;4.800;2023-11-21T02:40:15;33.70;;;12.02;;
69789;SDS011;57064;52.046;4.800;2023-11-21T02:42:46;28.35;;;12.60;;
69789;SDS011;57064;52.046;4.800;2023-11-21T02:45:13;31.02;;;11.70;;
69789;SDS011;57064;52.046;4.800;2023-11-21T02:47:41;24.88;;;10.82;;
69789;SDS011;57064;52.046;4.800;2023-11-21T02:50:08;35.97;;;11.60;;
69789;SDS011;57064;52.046;4.800;2023-11-21T02:52:34;28.70;;;11.57;;
69789;SDS011;57064;52.046;4.800;2023-11-21T02:55:01;30.40;;;12.73;;
69789;SDS011;57064;52.046;4.800;2023-11-21T02:57:28;27.10;;;11.93;;
69789;SDS011;57064;52.046;4.800;2023-11-21T02:59:54;35.70;;;10.90;;
69789;SDS011;57064;52.046;4.800;2023-11-21T03:02:21;28.83;;;11.40;;
69789;SDS011;57064;52.046;4.800;2023-11-21T03:04:47;35.50;;;11.38;;
69789;SDS011;57064;52.046;4.800;2023-11-21T03:07:14;32.90;;;11.25;;
69789;SDS011;57064;52.046;4.800;2023-11-21T03:09:40;43.45;;;12.77;;
69789;SDS011;57064;52.046;4.800;2023-11-21T03:12:07;31.98;;;12.10;;
69789;SDS011;57064;52.046;4.800;2023-11-21T03:14:34;33.50;;;11.25;;
69789;SDS011;57064;52.046;4.800;2023-11-21T03:17:00;37.00;;;13.20;;
69789;SDS011;57064;52.046;4.800;2023-11-21T03:19:27;38.03;;;12.40;;
69789;SDS011;57064;52.046;4.800;2023-11-21T03:21:53;36.50;;;12.30;;
69789;SDS011;57064;52.046;4.800;2023-11-21T03:24:19;30.67;;;11.52;;
69789;SDS011;57064;52.046;4.800;2023-11-21T03:26:47;30.98;;;11.85;;
69789;SDS011;57064;52.046;4.800;2023-11-21T03:29:13;39.17;;;12.30;;
69789;SDS011;57064;52.046;4.800;2023-11-21T03:31:40;38.97;;;12.23;;
69789;SDS011;57064;52.046;4.800;2023-11-21T03:34:06;33.22;;;11.57;;
69789;SDS011;57064;52.046;4.800;2023-11-21T03:36:35;33.10;;;13.55;;
69789;SDS011;57064;52.046;4.800;2023-11-21T03:39:01;30.77;;;12.40;;
69789;SDS011;57064;52.046;4.800;2023-11-21T03:41:27;38.97;;;13.65;;
69789;SDS011;57064;52.046;4.800;2023-11-21T03:43:53;42.20;;;14.20;;
69789;SDS011;57064;52.046;4.800;2023-11-21T03:46:19;38.17;;;11.77;;
69789;SDS011;57064;52.046;4.800;2023-11-21T03:48:46;36.95;;;12.90;;
69789;SDS011;57064;52.046;4.800;2023-11-21T03:51:12;32.30;;;11.60;;
69789;SDS011;57064;52.046;4.800;2023-11-21T03:53:38;28.90;;;11.38;;
69789;SDS011;57064;52.046;4.800;2023-11-21T03:56:04;34.05;;;11.75;;
69789;SDS011;57064;52.046;4.800;2023-11-21T03:58:30;33.33;;;12.43;;
69789;SDS011;57064;52.046;4.800;2023-11-21T04:00:56;37.75;;;13.88;;
69789;SDS011;57064;52.046;4.800;2023-11-21T04:03:22;33.60;;;11.13;;
69789;SDS011;57064;52.046;4.800;2023-11-21T04:05:48;34.42;;;11.55;;
69789;SDS011;57064;52.046;4.800;2023-11-21T04:08:14;31.38;;;11.60;;
69789;SDS011;57064;52.046;4.800;2023-11-21T04:10:40;29.02;;;11.50;;
69789;SDS011;57064;52.046;4.800;2023-11-21T04:13:07;33.72;;;12.63;;
69789;SDS011;57064;52.046;4.800;2023-11-21T04:15:33;35.58;;;11.15;;
69789;SDS011;57064;52.046;4.800;2023-11-21T04:17:59;32.88;;;11.82;;
69789;SDS011;57064;52.046;4.800;2023-11-21T04:20:25;36.67;;;11.70;;
69789;SDS011;57064;52.046;4.800;2023-11-21T04:22:52;32.15;;;11.13;;
69789;SDS011;57064;52.046;4.800;2023-11-21T04:25:18;32.47;;;12.43;;
69789;SDS011;57064;52.046;4.800;2023-11-21T04:27:45;31.02;;;11.60;;
69789;SDS011;57064;52.046;4.800;2023-11-21T04:30:11;29.83;;;11.85;;
69789;SDS011;57064;52.046;4.800;2023-11-21T04:32:38;31.02;;;11.63;;
69789;SDS011;57064;52.046;4.800;2023-11-21T04:35:04;91.75;;;27.52;;
69789;SDS011;57064;52.046;4.800;2023-11-21T04:37:31;49.65;;;17.40;;
69789;SDS011;57064;52.046;4.800;2023-11-21T04:39:57;33.65;;;13.35;;
69789;SDS011;57064;52.046;4.800;2023-11-21T04:42:23;55.83;;;18.00;;
69789;SDS011;57064;52.046;4.800;2023-11-21T04:44:49;66.63;;;20.05;;
69789;SDS011;57064;52.046;4.800;2023-11-21T04:47:15;65.47;;;21.40;;
69789;SDS011;57064;52.046;4.800;2023-11-21T04:49:42;43.95;;;13.75;;
69789;SDS011;57064;52.046;4.800;2023-11-21T04:52:11;32.85;;;13.60;;
69789;SDS011;57064;52.046;4.800;2023-11-21T04:54:38;35.47;;;12.00;;
69789;SDS011;57064;52.046;4.800;2023-11-21T04:57:05;35.10;;;11.82;;
69789;SDS011;57064;52.046;4.800;2023-11-21T04:59:32;34.65;;;12.10;;
69789;SDS011;57064;52.046;4.800;2023-11-21T05:01:59;30.85;;;10.82;;
69789;SDS011;57064;52.046;4.800;2023-11-21T05:04:25;32.03;;;11.55;;
69789;SDS011;57064;52.046;4.800;2023-11-21T05:06:52;28.55;;;11.13;;
69789;SDS011;57064;52.046;4.800;2023-11-21T05:09:18;32.65;;;12.05;;
69789;SDS011;57064;52.046;4.800;2023-11-21T05:11:44;35.25;;;12.23;;
69789;SDS011;57064;52.046;4.800;2023-11-21T05:14:10;26.63;;;11.18;;
69789;SDS011;57064;52.046;4.800;2023-11-21T05:16:36;35.35;;;11.98;;
69789;SDS011;57064;52.046;4.800;2023-11-21T05:19:03;42.15;;;11.80;;
69789;SDS011;57064;52.046;4.800;2023-11-21T05:21:29;37.17;;;11.93;;
69789;SDS011;57064;52.046;4.800;2023-11-21T05:23:57;37.28;;;11.60;;
69789;SDS011;57064;52.046;4.800;2023-11-21T05:26:24;35.05;;;13.02;;
69789;SDS011;57064;52.046;4.800;2023-11-21T05:28:50;34.10;;;11.75;;
69789;SDS011;57064;52.046;4.800;2023-11-21T05:31:17;31.35;;;11.15;;
69789;SDS011;57064;52.046;4.800;2023-11-21T05:33:43;35.72;;;11.95;;
69789;SDS011;57064;52.046;4.800;2023-11-21T05:36:09;34.25;;;11.52;;
69789;SDS011;57064;52.046;4.800;2023-11-21T05:38:35;35.22;;;12.32;;
69789;SDS011;57064;52.046;4.800;2023-11-21T05:41:02;36.30;;;11.77;;
69789;SDS011;57064;52.046;4.800;2023-11-21T05:43:30;40.05;;;13.98;;
69789;SDS011;57064;52.046;4.800;2023-11-21T05:45:57;37.35;;;13.30;;
69789;SDS011;57064;52.046;4.800;2023-11-21T05:48:23;35.05;;;13.38;;
69789;SDS011;57064;52.046;4.800;2023-11-21T05:50:50;47.75;;;14.27;;
69789;SDS011;57064;52.046;4.800;2023-11-21T05:53:16;40.75;;;13.68;;
69789;SDS011;57064;52.046;4.800;2023-11-21T05:55:42;42.08;;;13.82;;
69789;SDS011;57064;52.046;4.800;2023-11-21T05:58:08;44.58;;;14.52;;
69789;SDS011;57064;52.046;4.800;2023-11-21T06:00:34;38.65;;;14.68;;
69789;SDS011;57064;52.046;4.800;2023-11-21T06:03:01;48.08;;;17.02;;
69789;SDS011;57064;52.046;4.800;2023-11-21T06:05:27;45.10;;;15.10;;
69789;SDS011;57064;52.046;4.800;2023-11-21T06:07:54;33.70;;;13.95;;
69789;SDS011;57064;52.046;4.800;2023-11-21T06:10:23;37.03;;;13.25;;
69789;SDS011;57064;52.046;4.800;2023-11-21T06:12:50;34.35;;;14.00;;
69789;SDS011;57064;52.046;4.800;2023-11-21T06:15:16;35.60;;;13.35;;
69789;SDS011;57064;52.046;4.800;2023-11-21T06:17:45;42.22;;;15.05;;
69789;SDS011;57064;52.046;4.800;2023-11-21T06:20:14;41.17;;;15.63;;
69789;SDS011;57064;52.046;4.800;2023-11-21T06:22:43;41.40;;;12.82;;
69789;SDS011;57064;52.046;4.800;2023-11-21T06:25:11;34.28;;;13.75;;
69789;SDS011;57064;52.046;4.800;2023-11-21T06:27:39;34.55;;;14.07;;
69789;SDS011;57064;52.046;4.800;2023-11-21T06:30:07;40.35;;;13.48;;
69789;SDS011;57064;52.046;4.800;2023-11-21T06:32:34;33.58;;;12.82;;
69789;SDS011;57064;52.046;4.800;2023-11-21T06:35:02;38.25;;;13.18;;
69789;SDS011;57064;52.046;4.800;2023-11-21T06:37:29;33.17;;;13.10;;
69789;SDS011;57064;52.046;4.800;2023-11-21T06:39:56;31.23;;;11.55;;
69789;SDS011;57064;52.046;4.800;2023-11-21T06:42:23;31.77;;;12.50;;
69789;SDS011;57064;52.046;4.800;2023-11-21T06:44:50;27.55;;;11.32;;
69789;SDS011;57064;52.046;4.800;2023-11-21T06:47:21;28.95;;;11.68;;
69789;SDS011;57064;52.046;4.800;2023-11-21T06:49:51;23.63;;;10.50;;
69789;SDS011;57064;52.046;4.800;2023-11-21T06:52:18;24.02;;;10.35;;
69789;SDS011;57064;52.046;4.800;2023-11-21T06:54:44;27.08;;;9.50;;
69789;SDS011;57064;52.046;4.800;2023-11-21T06:57:12;27.90;;;9.38;;
69789;SDS011;57064;52.046;4.800;2023-11-21T06:59:38;30.55;;;9.52;;
69789;SDS011;57064;52.046;4.800;2023-11-21T07:02:04;25.15;;;9.35;;
69789;SDS011;57064;52.046;4.800;2023-11-21T07:04:31;29.20;;;9.57;;
69789;SDS011;57064;52.046;4.800;2023-11-21T07:06:58;28.05;;;9.82;;
69789;SDS011;57064;52.046;4.800;2023-11-21T07:09:24;28.33;;;9.23;;
69789;SDS011;57064;52.046;4.800;2023-11-21T07:11:51;28.13;;;10.10;;
69789;SDS011;57064;52.046;4.800;2023-11-21T07:14:17;29.08;;;9.88;;
69789;SDS011;57064;52.046;4.800;2023-11-21T07:16:44;27.70;;;9.55;;
69789;SDS011;57064;52.046;4.800;2023-11-21T07:19:11;20.30;;;8.10;;
69789;SDS011;57064;52.046;4.800;2023-11-21T07:21:38;26.08;;;8.80;;
69789;SDS011;57064;52.046;4.800;2023-11-21T07:24:05;30.58;;;9.15;;
69789;SDS011;57064;52.046;4.800;2023-11-21T07:26:32;32.60;;;9.98;;
69789;SDS011;57064;52.046;4.800;2023-11-21T07:28:59;28.45;;;8.07;;
69789;SDS011;57064;52.046;4.800;2023-11-21T07:31:29;25.55;;;8.95;;
69789;SDS011;57064;52.046;4.800;2023-11-21T07:33:59;29.20;;;10.60;;
69789;SDS011;57064;52.046;4.800;2023-11-21T07:36:26;25.40;;;9.60;;
69789;SDS011;57064;52.046;4.800;2023-11-21T07:38:52;30.65;;;10.10;;
69789;SDS011;57064;52.046;4.800;2023-11-21T07:41:18;32.97;;;9.73;;
69789;SDS011;57064;52.046;4.800;2023-11-21T07:43:45;30.73;;;10.27;;
69789;SDS011;57064;52.046;4.800;2023-11-21T07:46:12;36.20;;;11.43;;
69789;SDS011;57064;52.046;4.800;2023-11-21T07:48:39;38.28;;;10.15;;
69789;SDS011;57064;52.046;4.800;2023-11-21T07:51:07;34.25;;;11.23;;
69789;SDS011;57064;52.046;4.800;2023-11-21T07:53:34;44.05;;;13.73;;
69789;SDS011;57064;52.046;4.800;2023-11-21T07:56:03;32.67;;;11.15;;
69789;SDS011;57064;52.046;4.800;2023-11-21T07:58:30;33.30;;;11.50;;
69789;SDS011;57064;52.046;4.800;2023-11-21T08:00:58;36.15;;;9.95;;
69789;SDS011;57064;52.046;4.800;2023-11-21T08:03:25;34.22;;;10.27;;
69789;SDS011;57064;52.046;4.800;2023-11-21T08:05:57;37.28;;;11.73;;
69789;SDS011;57064;52.046;4.800;2023-11-21T08:08:24;41.97;;;11.07;;
69789;SDS011;57064;52.046;4.800;2023-11-21T08:10:51;32.33;;;10.25;;
69789;SDS011;57064;52.046;4.800;2023-11-21T08:13:28;39.38;;;12.55;;
69789;SDS011;57064;52.046;4.800;2023-11-21T08:15:55;39.03;;;12.88;;
69789;SDS011;57064;52.046;4.800;2023-11-21T08:18:28;53.92;;;15.85;;
69789;SDS011;57064;52.046;4.800;2023-11-21T08:20:54;42.95;;;13.68;;
69789;SDS011;57064;52.046;4.800;2023-11-21T08:23:21;41.53;;;13.75;;
69789;SDS011;57064;52.046;4.800;2023-11-21T08:25:50;38.50;;;11.95;;
69789;SDS011;57064;52.046;4.800;2023-11-21T08:28:17;45.90;;;12.57;;
69789;SDS011;57064;52.046;4.800;2023-11-21T08:30:44;47.75;;;13.48;;
69789;SDS011;57064;52.046;4.800;2023-11-21T08:33:10;43.97;;;14.25;;
69789;SDS011;57064;52.046;4.800;2023-11-21T08:35:36;46.08;;;14.45;;
69789;SDS011;57064;52.046;4.800;2023-11-21T08:38:03;54.95;;;16.38;;
69789;SDS011;57064;52.046;4.800;2023-11-21T08:40:29;46.05;;;15.18;;
69789;SDS011;57064;52.046;4.800;2023-11-21T08:42:55;50.10;;;14.20;;
69789;SDS011;57064;52.046;4.800;2023-11-21T08:45:23;42.83;;;12.57;;
69789;SDS011;57064;52.046;4.800;2023-11-21T08:47:53;47.83;;;12.07;;
69789;SDS011;57064;52.046;4.800;2023-11-21T08:50:19;43.58;;;11.48;;
69789;SDS011;57064;52.046;4.800;2023-11-21T08:52:46;43.00;;;12.65;;
69789;SDS011;57064;52.046;4.800;2023-11-21T08:55:12;32.00;;;9.13;;
69789;SDS011;57064;52.046;4.800;2023-11-21T08:57:39;42.17;;;13.88;;
69789;SDS011;57064;52.046;4.800;2023-11-21T09:00:06;46.13;;;12.98;;
69789;SDS011;57064;52.046;4.800;2023-11-21T09:02:39;40.08;;;12.48;;
69789;SDS011;57064;52.046;4.800;2023-11-21T09:05:07;44.63;;;13.13;;
69789;SDS011;57064;52.046;4.800;2023-11-21T09:07:34;43.67;;;12.27;;
69789;SDS011;57064;52.046;4.800;2023-11-21T09:10:00;39.22;;;11.32;;
69789;SDS011;57064;52.046;4.800;2023-11-21T09:12:28;36.15;;;9.68;;
69789;SDS011;57064;52.046;4.800;2023-11-21T09:14:54;26.10;;;7.75;;
69789;SDS011;57064;52.046;4.800;2023-11-21T09:17:20;30.42;;;8.98;;
69789;SDS011;57064;52.046;4.800;2023-11-21T09:19:46;37.70;;;9.13;;
69789;SDS011;57064;52.046;4.800;2023-11-21T09:22:16;33.78;;;7.28;;
69789;SDS011;57064;52.046;4.800;2023-11-21T09:24:42;23.63;;;6.03;;
69789;SDS011;57064;52.046;4.800;2023-11-21T09:27:08;33.13;;;7.85;;
69789;SDS011;57064;52.046;4.800;2023-11-21T09:29:37;23.98;;;6.75;;
69789;SDS011;57064;52.046;4.800;2023-11-21T09:32:04;21.83;;;7.28;;
69789;SDS011;57064;52.046;4.800;2023-11-21T09:34:32;21.30;;;6.40;;
69789;SDS011;57064;52.046;4.800;2023-11-21T09:37:03;19.83;;;5.45;;
69789;SDS011;57064;52.046;4.800;2023-11-21T09:39:31;22.17;;;6.68;;
69789;SDS011;57064;52.046;4.800;2023-11-21T09:44:46;16.67;;;5.05;;
69789;SDS011;57064;52.046;4.800;2023-11-21T09:47:49;15.88;;;5.60;;
69789;SDS011;57064;52.046;4.800;2023-11-21T09:50:16;21.92;;;6.80;;
69789;SDS011;57064;52.046;4.800;2023-11-21T09:52:54;15.48;;;5.72;;
69789;SDS011;57064;52.046;4.800;2023-11-21T09:55:26;17.48;;;5.10;;
69789;SDS011;57064;52.046;4.800;2023-11-21T09:57:54;15.45;;;5.50;;
69789;SDS011;57064;52.046;4.800;2023-11-21T10:00:22;13.40;;;4.50;;
69789;SDS011;57064;52.046;4.800;2023-11-21T10:02:49;18.92;;;6.50;;
69789;SDS011;57064;52.046;4.800;2023-11-21T10:05:16;16.83;;;6.07;;
69789;SDS011;57064;52.046;4.800;2023-11-21T10:07:45;13.57;;;4.50;;
69789;SDS011;57064;52.046;4.800;2023-11-21T10:10:12;9.25;;;3.03;;
69789;SDS011;57064;52.046;4.800;2023-11-21T10:12:40;15.20;;;5.38;;
69789;SDS011;57064;52.046;4.800;2023-11-21T10:15:09;15.30;;;5.60;;
69789;SDS011;57064;52.046;4.800;2023-11-21T10:17:40;14.88;;;4.65;;
69789;SDS011;57064;52.046;4.800;2023-11-21T10:20:13;14.90;;;5.18;;
69789;SDS011;57064;52.046;4.800;2023-11-21T10:22:42;18.13;;;5.60;;
69789;SDS011;57064;52.046;4.800;2023-11-21T10:25:09;15.82;;;5.93;;
69789;SDS011;57064;52.046;4.800;2023-11-21T10:27:36;18.77;;;6.45;;
69789;SDS011;57064;52.046;4.800;2023-11-21T10:30:09;18.58;;;5.80;;
69789;SDS011;57064;52.046;4.800;2023-11-21T10:32:41;19.65;;;6.40;;
69789;SDS011;57064;52.046;4.800;2023-11-21T10:35:07;16.48;;;5.30;;
69789;SDS011;57064;52.046;4.800;2023-11-21T10:37:37;16.52;;;5.47;;
69789;SDS011;57064;52.046;4.800;2023-11-21T10:40:09;19.48;;;5.95;;
69789;SDS011;57064;52.046;4.800;2023-11-21T10:42:37;18.80;;;6.50;;
69789;SDS011;57064;52.046;4.800;2023-11-21T10:45:04;15.73;;;6.07;;
69789;SDS011;57064;52.046;4.800;2023-11-21T10:47:41;19.70;;;6.28;;
69789;SDS011;57064;52.046;4.800;2023-11-21T10:50:09;27.58;;;7.63;;
69789;SDS011;57064;52.046;4.800;2023-11-21T10:52:42;21.58;;;7.03;;
69789;SDS011;57064;52.046;4.800;2023-11-21T10:55:21;26.33;;;8.07;;
69789;SDS011;57064;52.046;4.800;2023-11-21T10:57:51;16.73;;;5.88;;
69789;SDS011;57064;52.046;4.800;2023-11-21T11:00:18;21.58;;;7.43;;
69789;SDS011;57064;52.046;4.800;2023-11-21T11:02:46;19.35;;;6.45;;
69789;SDS011;57064;52.046;4.800;2023-11-21T11:05:16;17.23;;;5.30;;
69789;SDS011;57064;52.046;4.800;2023-11-21T11:07:47;17.92;;;7.20;;
69789;SDS011;57064;52.046;4.800;2023-11-21T11:10:25;16.48;;;6.35;;
69789;SDS011;57064;52.046;4.800;2023-11-21T11:12:52;22.42;;;7.60;;
69789;SDS011;57064;52.046;4.800;2023-11-21T11:15:20;21.10;;;7.15;;
69789;SDS011;57064;52.046;4.800;2023-11-21T11:17:46;20.02;;;7.32;;
69789;SDS011;57064;52.046;4.800;2023-11-21T11:20:14;22.45;;;8.32;;
69789;SDS011;57064;52.046;4.800;2023-11-21T11:22:44;30.63;;;9.27;;
69789;SDS011;57064;52.046;4.800;2023-11-21T11:28:17;26.40;;;8.75;;
69789;SDS011;57064;52.046;4.800;2023-11-21T11:33:48;20.90;;;7.75;;
69789;SDS011;57064;52.046;4.800;2023-11-21T11:39:26;21.75;;;7.75;;
69789;SDS011;57064;52.046;4.800;2023-11-21T11:41:55;22.52;;;7.43;;
69789;SDS011;57064;52.046;4.800;2023-11-21T11:47:14;26.17;;;8.02;;
69789;SDS011;57064;52.046;4.800;2023-11-21T11:49:56;24.75;;;8.30;;
69789;SDS011;57064;52.046;4.800;2023-11-21T11:52:32;23.33;;;6.93;;
69789;SDS011;57064;52.046;4.800;2023-11-21T11:55:02;24.08;;;8.20;;
69789;SDS011;57064;52.046;4.800;2023-11-21T11:57:33;26.23;;;7.25;;
69789;SDS011;57064;52.046;4.800;2023-11-21T12:02:54;16.42;;;5.28;;
69789;SDS011;57064;52.046;4.800;2023-11-21T12:05:27;21.52;;;5.60;;
69789;SDS011;57064;52.046;4.800;2023-11-21T12:07:55;21.83;;;7.18;;
69789;SDS011;57064;52.046;4.800;2023-11-21T12:10:26;16.60;;;5.80;;
69789;SDS011;57064;52.046;4.800;2023-11-21T12:12:57;27.08;;;7.43;;
69789;SDS011;57064;52.046;4.800;2023-11-21T12:15:28;19.45;;;6.57;;
69789;SDS011;57064;52.046;4.800;2023-11-21T12:17:56;23.05;;;6.80;;
69789;SDS011;57064;52.046;4.800;2023-11-21T12:20:26;27.70;;;7.40;;
69789;SDS011;57064;52.046;4.800;2023-11-21T12:25:26;25.25;;;7.35;;
69789;SDS011;57064;52.046;4.800;2023-11-21T12:27:59;28.02;;;8.15;;
69789;SDS011;57064;52.046;4.800;2023-11-21T12:30:28;21.67;;;8.27;;
69789;SDS011;57064;52.046;4.800;2023-11-21T12:32:56;29.92;;;8.73;;
69789;SDS011;57064;52.046;4.800;2023-11-21T12:35:29;28.92;;;9.35;;
69789;SDS011;57064;52.046;4.800;2023-11-21T12:37:56;31.38;;;9.75;;
69789;SDS011;57064;52.046;4.800;2023-11-21T12:40:22;34.67;;;9.50;;
69789;SDS011;57064;52.046;4.800;2023-11-21T12:42:51;31.92;;;9.40;;
69789;SDS011;57064;52.046;4.800;2023-11-21T12:45:19;34.10;;;9.05;;
69789;SDS011;57064;52.046;4.800;2023-11-21T12:47:48;29.95;;;9.90;;
69789;SDS011;57064;52.046;4.800;2023-11-21T12:50:15;27.80;;;9.38;;
69789;SDS011;57064;52.046;4.800;2023-11-21T12:52:48;28.40;;;8.32;;
69789;SDS011;57064;52.046;4.800;2023-11-21T12:55:22;28.17;;;9.13;;
69789;SDS011;57064;52.046;4.800;2023-11-21T12:57:49;25.45;;;8.90;;
69789;SDS011;57064;52.046;4.800;2023-11-21T13:00:16;26.30;;;9.07;;
69789;SDS011;57064;52.046;4.800;2023-11-21T13:02:56;24.40;;;9.00;;
69789;SDS011;57064;52.046;4.800;2023-11-21T13:05:33;28.27;;;9.57;;
69789;SDS011;57064;52.046;4.800;2023-11-21T13:08:04;29.65;;;10.25;;
69789;SDS011;57064;52.046;4.800;2023-11-21T13:10:33;31.45;;;11.75;;
69789;SDS011;57064;52.046;4.800;2023-11-21T13:13:06;29.17;;;9.02;;
69789;SDS011;57064;52.046;4.800;2023-11-21T13:15:34;33.97;;;11.05;;
69789;SDS011;57064;52.046;4.800;2023-11-21T13:18:12;30.73;;;11.35;;
69789;SDS011;57064;52.046;4.800;2023-11-21T13:20:38;39.03;;;11.55;;
69789;SDS011;57064;52.046;4.800;2023-11-21T13:23:07;31.15;;;10.40;;
69789;SDS011;57064;52.046;4.800;2023-11-21T13:25:35;31.17;;;11.13;;
69789;SDS011;57064;52.046;4.800;2023-11-21T13:28:02;29.05;;;9.85;;
69789;SDS011;57064;52.046;4.800;2023-11-21T13:30:28;36.55;;;10.68;;
69789;SDS011;57064;52.046;4.800;2023-11-21T13:32:59;38.42;;;11.77;;
69789;SDS011;57064;52.046;4.800;2023-11-21T13:35:31;36.60;;;11.13;;
69789;SDS011;57064;52.046;4.800;2023-11-21T13:38:12;35.42;;;13.52;;
69789;SDS011;57064;52.046;4.800;2023-11-21T13:40:46;44.92;;;13.13;;
69789;SDS011;57064;52.046;4.800;2023-11-21T13:43:14;50.78;;;15.70;;
69789;SDS011;57064;52.046;4.800;2023-11-21T13:45:43;32.38;;;11.10;;
69789;SDS011;57064;52.046;4.800;2023-11-21T13:48:11;35.50;;;12.50;;
69789;SDS011;57064;52.046;4.800;2023-11-21T13:50:50;46.40;;;13.20;;
69789;SDS011;57064;52.046;4.800;2023-11-21T13:53:33;40.38;;;13.85;;
69789;SDS011;57064;52.046;4.800;2023-11-21T13:56:02;36.17;;;11.88;;
69789;SDS011;57064;52.046;4.800;2023-11-21T13:58:29;33.40;;;12.18;;
69789;SDS011;57064;52.046;4.800;2023-11-21T14:01:12;38.30;;;12.82;;
69789;SDS011;57064;52.046;4.800;2023-11-21T14:03:57;34.17;;;11.00;;
69789;SDS011;57064;52.046;4.800;2023-11-21T14:06:47;40.28;;;12.98;;
69789;SDS011;57064;52.046;4.800;2023-11-21T14:09:21;36.50;;;11.68;;
69789;SDS011;57064;52.046;4.800;2023-11-21T14:11:50;33.10;;;11.25;;
69789;SDS011;57064;52.046;4.800;2023-11-21T14:14:18;33.08;;;11.18;;
69789;SDS011;57064;52.046;4.800;2023-11-21T14:16:49;37.67;;;12.20;;
69789;SDS011;57064;52.046;4.800;2023-11-21T14:19:15;32.50;;;10.95;;
69789;SDS011;57064;52.046;4.800;2023-11-21T14:21:45;29.50;;;10.52;;
69789;SDS011;57064;52.046;4.800;2023-11-21T14:24:13;27.77;;;10.68;;
69789;SDS011;57064;52.046;4.800;2023-11-21T14:26:43;28.83;;;9.60;;
69789;SDS011;57064;52.046;4.800;2023-11-21T14:29:11;27.40;;;9.23;;
69789;SDS011;57064;52.046;4.800;2023-11-21T14:31:39;29.15;;;10.38;;
69789;SDS011;57064;52.046;4.800;2023-11-21T14:34:06;29.77;;;10.63;;
69789;SDS011;57064;52.046;4.800;2023-11-21T14:36:33;31.23;;;11.35;;
69789;SDS011;57064;52.046;4.800;2023-11-21T14:39:00;28.63;;;9.85;;
69789;SDS011;57064;52.046;4.800;2023-11-21T14:41:26;28.77;;;9.90;;
69789;SDS011;57064;52.046;4.800;2023-11-21T14:43:54;26.73;;;9.88;;
69789;SDS011;57064;52.046;4.800;2023-11-21T14:46:22;32.67;;;11.38;;
69789;SDS011;57064;52.046;4.800;2023-11-21T14:48:48;25.83;;;9.85;;
69789;SDS011;57064;52.046;4.800;2023-11-21T14:51:27;30.63;;;9.98;;